Terminal Aerodrome Forecast
Issued by NWS

Home | Current Version | Previous Version | Text Only | Print | Product List | Glossary On
Versions: 1 2 3 4 5 6 7 8 9 10 11 12 13 14 15 16 17 18 19 20
000
FTUS41 KBOX 291741
TAFBED
TAF
KBED 291741Z 2918/3018 31012G20KT P6SM FEW250
     FM292100 33011KT P6SM FEW050
     FM292200 33009KT P6SM FEW250
     FM300100 34005KT P6SM SKC
     FM301500 24004KT P6SM SKC=

USA.gov is the U.S. government's official web portal to all federal, state and local government web resources and services.